createdAt,value
2019-03-18T00:01:49.266Z,1.52
2019-03-18T00:06:51.502Z,1.65
2019-03-18T00:11:53.597Z,1.50
2019-03-18T00:16:55.982Z,1.87
2019-03-18T00:21:58.033Z,2.12
2019-03-18T00:27:00.259Z,1.90
2019-03-18T00:32:02.270Z,1.80
2019-03-18T00:37:04.423Z,1.70
2019-03-18T00:42:06.904Z,2.12
2019-03-18T00:47:09.159Z,2.10
2019-03-18T00:52:11.245Z,2.22
2019-03-18T00:57:13.302Z,2.40
2019-03-18T01:02:15.442Z,2.60
2019-03-18T01:07:17.638Z,3.02
2019-03-18T01:12:19.772Z,3.12
2019-03-18T01:17:21.850Z,2.80
2019-03-18T01:22:24.195Z,3.30
2019-03-18T01:27:26.640Z,3.70
2019-03-18T01:32:28.730Z,4.78
2019-03-18T01:37:30.810Z,5.37
2019-03-18T01:42:33.380Z,4.55
2019-03-18T01:47:35.434Z,4.58
2019-03-18T01:52:37.513Z,4.25
2019-03-18T01:57:39.553Z,4.95
2019-03-18T02:02:41.673Z,4.05
2019-03-18T02:07:43.690Z,4.20
2019-03-18T02:12:45.722Z,4.37
2019-03-18T02:17:47.809Z,3.77
2019-03-18T02:22:52.178Z,4.22
2019-03-18T02:27:54.267Z,3.92
2019-03-18T02:32:56.429Z,4.03
2019-03-18T02:37:58.573Z,4.00
2019-03-18T02:43:00.642Z,4.58
2019-03-18T02:48:04.223Z,4.03
2019-03-18T02:53:06.521Z,4.53
2019-03-18T02:58:09.493Z,4.67
2019-03-18T03:03:11.552Z,4.83
2019-03-18T03:08:13.667Z,4.03
2019-03-18T03:13:15.783Z,5.25
2019-03-18T03:18:19.923Z,4.50
2019-03-18T03:23:21.989Z,5.42
2019-03-18T03:28:24.076Z,6.05
2019-03-18T03:33:26.158Z,5.87
2019-03-18T03:38:28.351Z,5.33
2019-03-18T03:43:30.559Z,6.08
2019-03-18T03:48:32.919Z,6.67
2019-03-18T03:53:34.924Z,6.72
2019-03-18T03:58:37.188Z,6.83
2019-03-18T04:03:39.294Z,7.28
2019-03-18T04:08:43.823Z,7.03
2019-03-18T04:13:45.892Z,7.53
2019-03-18T04:18:48.160Z,7.62
2019-03-18T04:23:50.210Z,7.65
2019-03-18T04:28:52.387Z,7.75
2019-03-18T04:33:54.383Z,8.00
2019-03-18T04:38:56.514Z,6.90
2019-03-18T04:43:58.634Z,7.17
2019-03-18T04:49:01.126Z,7.00
2019-03-18T04:54:03.242Z,6.92
2019-03-18T04:59:05.870Z,6.70
2019-03-18T05:04:07.967Z,6.55
2019-03-18T05:09:10.323Z,6.22
2019-03-18T05:14:12.391Z,6.20
2019-03-18T05:19:14.482Z,6.30
2019-03-18T05:24:16.576Z,6.15
2019-03-18T05:29:18.964Z,6.53
2019-03-18T05:34:21.071Z,6.03
2019-03-18T05:39:23.149Z,6.35
2019-03-18T05:44:25.408Z,6.00
2019-03-18T05:49:27.971Z,7.45
2019-03-18T05:54:30.080Z,6.28
2019-03-18T05:59:32.298Z,7.37
2019-03-18T06:04:35.261Z,6.10
2019-03-18T06:09:37.572Z,6.45
2019-03-18T06:14:39.693Z,7.10
2019-03-18T06:19:41.826Z,8.18
2019-03-18T06:24:43.964Z,7.67
2019-03-18T06:29:46.773Z,8.20
2019-03-18T06:34:48.878Z,8.18
2019-03-18T06:39:50.998Z,7.75
2019-03-18T06:44:53.054Z,6.97
2019-03-18T06:49:55.122Z,7.53
2019-03-18T06:54:57.111Z,7.92
2019-03-18T06:59:59.332Z,7.65
2019-03-18T07:05:01.509Z,7.25
2019-03-18T07:10:04.005Z,7.87
2019-03-18T07:15:06.242Z,6.72
2019-03-18T07:20:08.974Z,7.03
2019-03-18T07:25:11.831Z,6.15
2019-03-18T07:30:14.512Z,6.25
2019-03-18T07:35:16.666Z,6.00
2019-03-18T07:40:18.867Z,5.62
2019-03-18T07:45:21.269Z,5.70
2019-03-18T07:50:23.418Z,5.42
2019-03-18T07:55:25.510Z,4.70
2019-03-18T08:00:28.046Z,4.90
2019-03-18T08:05:30.159Z,4.60
2019-03-18T08:10:32.174Z,5.03
2019-03-18T08:15:34.215Z,4.03
2019-03-18T08:20:36.297Z,3.80
2019-03-18T08:25:38.325Z,4.35
2019-03-18T08:30:40.403Z,4.20
2019-03-18T08:35:42.425Z,3.72
2019-03-18T08:40:44.802Z,3.80
2019-03-18T08:45:46.956Z,4.05
2019-03-18T08:50:49.031Z,4.10
2019-03-18T08:55:51.050Z,3.72
2019-03-18T09:00:53.238Z,3.98
2019-03-18T09:05:55.326Z,3.75
2019-03-18T09:10:57.367Z,3.92
2019-03-18T09:15:59.811Z,4.20
2019-03-18T09:21:02.280Z,3.90
2019-03-18T09:26:06.784Z,3.70
2019-03-18T09:31:08.833Z,3.70
2019-03-18T09:36:11.089Z,3.10
2019-03-18T09:41:13.315Z,3.77
2019-03-18T09:46:15.414Z,3.65
2019-03-18T09:51:17.487Z,2.98
2019-03-18T09:56:19.514Z,3.02
2019-03-18T10:01:21.585Z,2.75
2019-03-18T10:06:23.809Z,3.00
2019-03-18T10:11:25.878Z,2.30
2019-03-18T10:16:28.312Z,2.90
2019-03-18T10:21:30.495Z,2.47
2019-03-18T10:26:32.585Z,2.70
2019-03-18T10:31:34.635Z,2.35
2019-03-18T10:36:36.671Z,2.20
2019-03-18T10:41:39.004Z,2.42
2019-03-18T10:46:41.115Z,2.42
2019-03-18T10:51:43.572Z,2.85
2019-03-18T10:56:47.398Z,2.25
2019-03-18T11:01:49.474Z,2.60
2019-03-18T11:06:51.570Z,2.87
2019-03-18T11:11:53.649Z,2.62
2019-03-18T11:16:55.777Z,3.15
2019-03-18T11:21:57.919Z,2.87
2019-03-18T11:26:59.958Z,2.52
2019-03-18T11:32:02.342Z,2.20
2019-03-18T11:37:04.301Z,2.65
2019-03-18T11:42:06.376Z,2.10
2019-03-18T11:47:08.499Z,2.27
2019-03-18T11:52:10.744Z,1.75
2019-03-18T11:57:12.902Z,1.80
2019-03-18T12:02:26.954Z,1.70
2019-03-18T12:07:19.086Z,1.82
2019-03-18T12:12:21.251Z,2.20
2019-03-18T12:17:23.352Z,1.72
2019-03-18T12:22:25.538Z,1.92
2019-03-18T12:27:27.697Z,2.20
2019-03-18T12:32:29.771Z,2.40
2019-03-18T12:37:32.167Z,2.42
2019-03-18T12:42:34.701Z,2.50
2019-03-18T12:47:38.009Z,2.42
2019-03-18T12:52:40.064Z,2.42
2019-03-18T12:57:42.565Z,2.60
2019-03-18T13:02:44.991Z,2.25
2019-03-18T13:07:47.379Z,2.10
2019-03-18T13:12:50.204Z,2.30
2019-03-18T13:17:52.262Z,2.00
2019-03-18T13:22:54.600Z,1.92
2019-03-18T13:27:56.779Z,1.77
2019-03-18T13:32:58.917Z,2.00
2019-03-18T13:38:00.998Z,1.70
2019-03-18T13:43:03.090Z,2.15
2019-03-18T13:48:05.236Z,2.33
2019-03-18T13:53:08.409Z,2.52
2019-03-18T13:58:10.578Z,2.10
2019-03-18T14:03:12.818Z,2.17
2019-03-18T14:08:14.830Z,2.50
2019-03-18T14:13:16.898Z,2.50
2019-03-18T14:18:18.965Z,2.55
2019-03-18T14:23:21.063Z,2.25
2019-03-18T14:28:23.133Z,2.05
2019-03-18T14:33:25.662Z,1.70
2019-03-18T14:38:27.814Z,2.12
2019-03-18T14:43:29.866Z,2.12
2019-03-18T14:48:31.934Z,2.40
2019-03-18T14:53:36.443Z,2.37
2019-03-18T14:58:39.109Z,2.40
2019-03-18T15:03:41.394Z,2.02
2019-03-18T15:08:43.557Z,2.10
2019-03-18T15:13:45.599Z,2.00
2019-03-18T15:18:47.694Z,2.02
2019-03-18T15:23:49.750Z,2.00
2019-03-18T15:28:51.894Z,1.70
2019-03-18T15:33:54.167Z,2.02
2019-03-18T15:38:56.291Z,2.05
2019-03-18T15:43:58.348Z,1.90
2019-03-18T15:49:00.549Z,1.70
2019-03-18T15:54:02.599Z,1.72
2019-03-18T15:59:05.122Z,2.20
2019-03-18T16:04:07.166Z,2.10
2019-03-18T16:09:09.373Z,2.00
2019-03-18T16:14:11.413Z,2.10
2019-03-18T16:19:13.859Z,2.02
2019-03-18T16:24:17.190Z,1.70
2019-03-18T16:29:19.494Z,2.17
2019-03-18T16:34:21.614Z,1.87
2019-03-18T16:39:24.276Z,1.90
2019-03-18T16:44:26.354Z,1.98
2019-03-18T16:49:28.445Z,2.00
2019-03-18T16:54:30.480Z,2.35
2019-03-18T16:59:32.879Z,1.55
2019-03-18T17:04:34.971Z,1.80
2019-03-18T17:09:37.026Z,1.92
2019-03-18T17:14:39.463Z,1.92
2019-03-18T17:19:41.566Z,1.90
2019-03-18T17:24:43.615Z,2.20
2019-03-18T17:29:45.730Z,1.95
2019-03-18T17:34:48.017Z,2.08
2019-03-18T17:39:50.162Z,2.25
2019-03-18T17:44:52.189Z,2.05
2019-03-18T17:49:54.188Z,3.00
2019-03-18T17:54:56.252Z,2.35
2019-03-18T17:59:58.395Z,2.60
2019-03-18T18:05:03.113Z,3.27
2019-03-18T18:10:05.024Z,2.60
2019-03-18T18:15:07.457Z,2.80
2019-03-18T18:20:09.630Z,3.10
2019-03-18T18:25:11.900Z,2.80
2019-03-18T18:30:14.222Z,2.87
2019-03-18T18:35:16.329Z,3.42
2019-03-18T18:40:18.440Z,3.58
2019-03-18T18:45:21.366Z,3.70
2019-03-18T18:50:23.661Z,3.55
2019-03-18T18:55:25.712Z,2.98
2019-03-18T19:00:27.894Z,3.60
2019-03-18T19:05:30.056Z,3.35
2019-03-18T19:10:32.147Z,3.27
2019-03-18T19:15:34.349Z,3.33
2019-03-18T19:20:36.500Z,3.15
2019-03-18T19:25:41.438Z,2.80
2019-03-18T19:30:43.623Z,2.80
2019-03-18T19:35:45.819Z,3.20
2019-03-18T19:40:47.850Z,3.15
2019-03-18T19:45:49.918Z,3.02
2019-03-18T19:50:52.967Z,3.08
2019-03-18T19:55:55.046Z,3.40
2019-03-18T20:00:57.354Z,3.20
2019-03-18T20:06:00.398Z,3.22
2019-03-18T20:11:04.518Z,3.47
2019-03-18T20:16:06.568Z,3.60
2019-03-18T20:21:08.837Z,3.95
2019-03-18T20:26:11.234Z,3.90
2019-03-18T20:31:25.128Z,3.60
2019-03-18T20:36:17.268Z,4.20
2019-03-18T20:41:19.348Z,3.95
2019-03-18T20:46:21.432Z,4.12
2019-03-18T20:51:23.512Z,3.85
2019-03-18T20:56:28.035Z,4.50
2019-03-18T21:01:30.129Z,4.05
2019-03-18T21:06:34.655Z,4.08
2019-03-18T21:11:37.400Z,4.30
2019-03-18T21:16:39.754Z,4.22
2019-03-18T21:21:42.578Z,4.35
2019-03-18T21:26:44.950Z,4.67
2019-03-18T21:31:47.570Z,4.15
2019-03-18T21:36:49.994Z,3.83
2019-03-18T21:41:52.253Z,4.53
2019-03-18T21:46:57.300Z,2.87
2019-03-18T21:51:59.306Z,3.30
2019-03-18T21:57:01.375Z,3.42
2019-03-18T22:02:03.533Z,3.85
2019-03-18T22:07:05.758Z,3.80
2019-03-18T22:12:07.816Z,3.35
2019-03-18T22:17:12.238Z,3.62
2019-03-18T22:22:14.335Z,3.80
2019-03-18T22:27:16.689Z,4.10
2019-03-18T22:32:18.810Z,3.92
2019-03-18T22:37:20.925Z,3.72
2019-03-18T22:42:23.094Z,4.40
2019-03-18T22:47:25.807Z,3.80
2019-03-18T22:52:27.862Z,5.20
2019-03-18T22:57:30.188Z,4.58
2019-03-18T23:02:32.270Z,4.70
2019-03-18T23:07:34.706Z,4.78
2019-03-18T23:12:36.740Z,4.37
2019-03-18T23:17:38.999Z,4.50
2019-03-18T23:22:41.039Z,4.90
2019-03-18T23:27:43.079Z,5.17
2019-03-18T23:32:45.153Z,4.92
2019-03-18T23:37:47.229Z,5.25
2019-03-18T23:42:49.269Z,5.53
2019-03-18T23:47:53.608Z,5.47
2019-03-18T23:52:55.745Z,5.08
2019-03-18T23:57:57.841Z,5.10
